Time;durP1;ratioP1;P1;durP2;ratioP2;P2;SDS_P1;SDS_P2;PMS_P1;PMS_P2;Temp;Humidity;BMP_temperature;BMP_pressure;BME280_temperature;BME280_humidity;BME280_pressure;Samples;Min_cycle;Max_cycle;Signal;HPM_P1;HPM_P2
2023/09/27 00:00:55;;;;;;;60.70;29.70;;;;;;;16.01;82.57;101411.79;110870;1210;97620;-66
2023/09/27 00:03:20;;;;;;;57.00;28.90;;;;;;;15.99;82.67;101413.35;110876;1209;139662;-65
2023/09/27 00:05:46;;;;;;;58.70;30.40;;;;;;;15.97;82.75;101409.63;110935;1223;111496;-65
2023/09/27 00:08:11;;;;;;;59.20;30.80;;;;;;;15.97;82.88;101410.77;110865;1214;97687;-65
2023/09/27 00:10:36;;;;;;;65.50;30.70;;;;;;;15.95;82.85;101409.02;110815;1214;139344;-65
2023/09/27 00:13:02;;;;;;;59.20;30.70;;;;;;;15.94;82.98;101409.45;110891;1213;97602;-65
2023/09/27 00:15:28;;;;;;;65.80;31.20;;;;;;;15.93;82.83;101408.97;110823;1213;140299;-65
2023/09/27 00:17:54;;;;;;;59.70;31.10;;;;;;;15.92;83.10;101412.27;110916;1223;97681;-65
2023/09/27 00:20:20;;;;;;;67.50;30.10;;;;;;;15.91;83.31;101410.83;110769;1209;139660;-64
2023/09/27 00:22:45;;;;;;;61.90;29.40;;;;;;;15.91;83.22;101409.58;110921;1214;97603;-65
2023/09/27 00:25:12;;;;;;;60.90;30.20;;;;;;;15.88;83.25;101410.61;111051;1213;97762;-65
2023/09/27 00:27:38;;;;;;;64.50;29.50;;;;;;;15.87;83.41;101407.44;110847;1210;139567;-65
2023/09/27 00:30:04;;;;;;;62.70;29.30;;;;;;;15.86;83.50;101407.85;110916;1210;97900;-65
2023/09/27 00:32:31;;;;;;;63.60;31.60;;;;;;;15.84;83.40;101407.95;110770;1213;139061;-65
2023/09/27 00:34:56;;;;;;;56.00;29.30;;;;;;;15.82;83.53;101408.42;110960;1214;97686;-65
2023/09/27 00:37:21;;;;;;;69.70;31.10;;;;;;;15.82;83.73;101405.39;110951;1214;97629;-65
2023/09/27 00:39:46;;;;;;;63.40;31.20;;;;;;;15.81;83.72;101405.63;110786;1209;138839;-65
2023/09/27 00:42:12;;;;;;;62.00;29.90;;;;;;;15.79;83.81;101401.02;110832;1214;99334;-66
2023/09/27 00:44:38;;;;;;;63.10;29.50;;;;;;;15.78;84.02;101398.55;110833;1210;140754;-66
2023/09/27 00:47:05;;;;;;;61.60;30.10;;;;;;;15.77;83.94;101405.10;110957;1215;97790;-66
2023/09/27 00:49:31;;;;;;;60.20;29.40;;;;;;;15.75;84.04;101405.02;110918;1209;97281;-66
2023/09/27 00:51:58;;;;;;;61.60;29.70;;;;;;;15.74;84.18;101399.15;110777;1215;139233;-65
2023/09/27 00:54:23;;;;;;;56.40;29.30;;;;;;;15.74;84.28;101398.82;111030;1212;97607;-66
2023/09/27 00:56:51;;;;;;;62.70;30.00;;;;;;;15.72;84.38;101396.71;110794;1209;140531;-66
2023/09/27 00:59:17;;;;;;;61.50;28.60;;;;;;;15.71;84.40;101391.20;111043;1210;97668;-64
2023/09/27 01:01:44;;;;;;;57.60;30.90;;;;;;;15.69;84.48;101392.73;110827;1210;97691;-64
2023/09/27 01:04:13;;;;;;;60.00;30.40;;;;;;;15.69;84.57;101392.75;110671;1209;139572;-67
2023/09/27 01:06:40;;;;;;;56.60;31.00;;;;;;;15.68;84.70;101396.75;111023;1215;97748;-64
2023/09/27 01:09:05;;;;;;;60.80;29.00;;;;;;;15.67;84.66;101395.94;110826;1210;139352;-64
2023/09/27 01:11:30;;;;;;;61.80;29.20;;;;;;;15.65;84.73;101399.63;111028;1209;97718;-65
2023/09/27 01:13:56;;;;;;;66.70;31.10;;;;;;;15.63;84.76;101397.06;110930;1215;100263;-66
2023/09/27 01:16:22;;;;;;;61.50;29.60;;;;;;;15.61;84.82;101397.85;110884;1209;140171;-66
2023/09/27 01:18:47;;;;;;;64.70;30.50;;;;;;;15.60;85.00;101399.73;111042;1210;97591;-64
2023/09/27 01:21:12;;;;;;;64.10;31.30;;;;;;;15.59;85.13;101400.33;110861;1215;139238;-64
2023/09/27 01:23:40;;;;;;;65.10;30.60;;;;;;;15.58;85.25;101400.73;111033;1210;97732;-65
2023/09/27 01:26:07;;;;;;;54.80;29.30;;;;;;;15.57;85.29;101398.27;110968;1215;97657;-64
2023/09/27 01:28:33;;;;;;;61.50;31.20;;;;;;;15.55;85.33;101395.61;110880;1215;139082;-65
2023/09/27 01:30:58;;;;;;;60.10;30.20;;;;;;;15.54;85.42;101393.16;110969;1209;97497;-64
2023/09/27 01:33:24;;;;;;;60.30;30.00;;;;;;;15.52;85.42;101386.59;110926;1215;139510;-65
2023/09/27 01:35:49;;;;;;;53.90;29.20;;;;;;;15.52;85.54;101387.35;110957;1209;97715;-64
2023/09/27 01:38:14;;;;;;;61.40;29.30;;;;;;;15.51;85.68;101389.74;110837;1209;97586;-66
2023/09/27 01:40:44;;;;;;;66.70;31.50;;;;;;;15.50;85.65;101389.97;110900;1209;139149;-66
2023/09/27 01:43:11;;;;;;;57.00;29.10;;;;;;;15.49;85.68;101391.66;110871;1209;110205;-65
2023/09/27 01:45:37;;;;;;;57.80;30.30;;;;;;;15.47;85.82;101387.98;110798;1214;139359;-65
2023/09/27 01:48:04;;;;;;;67.00;30.40;;;;;;;15.45;85.86;101384.45;110946;1209;98107;-65
2023/09/27 01:50:33;;;;;;;66.30;31.50;;;;;;;15.44;85.86;101388.29;110850;1215;141328;-64
2023/09/27 01:52:59;;;;;;;70.20;30.40;;;;;;;15.43;85.92;101385.10;110921;1209;106992;-65
2023/09/27 01:55:25;;;;;;;65.00;31.40;;;;;;;15.41;85.93;101389.88;110914;1210;98019;-65
2023/09/27 01:57:50;;;;;;;64.70;29.90;;;;;;;15.40;86.05;101386.19;110904;1214;139130;-65
2023/09/27 02:00:18;;;;;;;67.90;29.70;;;;;;;15.38;86.12;101388.42;110845;1212;100037;-65
2023/09/27 02:02:45;;;;;;;67.80;30.70;;;;;;;15.36;86.10;101386.36;110846;1209;139843;-65
2023/09/27 02:05:11;;;;;;;61.80;29.50;;;;;;;15.35;86.20;101385.00;110970;1209;97730;-65
2023/09/27 02:07:38;;;;;;;65.40;31.60;;;;;;;15.33;86.26;101384.20;110939;1216;99125;-65
2023/09/27 02:10:08;;;;;;;61.10;31.70;;;;;;;15.31;86.29;101382.31;110772;1213;141039;-65
2023/09/27 02:12:34;;;;;;;65.90;31.50;;;;;;;15.30;86.37;101381.64;110983;1209;99986;-65
2023/09/27 02:15:00;;;;;;;60.90;29.70;;;;;;;15.28;86.41;101381.91;110861;1210;139047;-65
2023/09/27 02:17:26;;;;;;;70.90;31.40;;;;;;;15.26;86.45;101383.45;111016;1209;97198;-65
2023/09/27 02:19:51;;;;;;;61.10;30.90;;;;;;;15.25;86.46;101387.11;110953;1209;112641;-66
2023/09/27 02:22:18;;;;;;;68.80;32.00;;;;;;;15.24;86.67;101386.80;110857;1214;140702;-65
2023/09/27 02:24:44;;;;;;;60.80;30.20;;;;;;;15.23;86.80;101389.89;111005;1214;97648;-65
2023/09/27 02:27:10;;;;;;;64.60;30.70;;;;;;;15.23;86.76;101388.65;110917;1215;139337;-65
2023/09/27 02:29:37;;;;;;;61.60;30.90;;;;;;;15.22;86.64;101386.55;110983;1213;111890;-65
2023/09/27 02:32:03;;;;;;;60.80;32.40;;;;;;;15.20;86.88;101385.55;110842;1209;97642;-64
2023/09/27 02:34:28;;;;;;;60.50;31.40;;;;;;;15.19;86.82;101381.66;110880;1209;139551;-65
2023/09/27 02:36:54;;;;;;;60.40;30.70;;;;;;;15.18;87.01;101380.59;111010;1209;97623;-65
2023/09/27 02:39:19;;;;;;;63.50;31.40;;;;;;;15.17;87.09;101377.63;110793;1213;138875;-65
2023/09/27 02:41:44;;;;;;;64.10;31.40;;;;;;;15.16;87.08;101373.17;110916;1209;97667;-65
2023/09/27 02:44:11;;;;;;;59.30;31.10;;;;;;;15.15;87.21;101375.00;110888;1215;97812;-65
2023/09/27 02:46:39;;;;;;;62.50;31.30;;;;;;;15.14;87.23;101371.98;110807;1210;139651;-64
2023/09/27 02:49:04;;;;;;;60.40;30.40;;;;;;;15.14;87.24;101371.48;110855;1214;97687;-65
2023/09/27 02:51:31;;;;;;;69.90;32.40;;;;;;;15.12;87.36;101370.84;110877;1214;141100;-64
2023/09/27 02:53:57;;;;;;;63.50;31.50;;;;;;;15.11;87.40;101367.30;110900;1209;97950;-64
2023/09/27 02:56:22;;;;;;;70.70;34.00;;;;;;;15.10;87.52;101366.26;110820;1212;139275;-64
2023/09/27 02:58:48;;;;;;;72.20;33.90;;;;;;;15.09;87.58;101370.27;110927;1209;97630;-65
2023/09/27 03:01:13;;;;;;;60.80;30.90;;;;;;;15.09;87.66;101375.70;110961;1209;97995;-64
2023/09/27 03:03:39;;;;;;;68.20;31.90;;;;;;;15.08;87.72;101375.04;110934;1215;139694;-65
2023/09/27 03:06:12;;;;;;;68.70;33.50;;;;;;;15.07;87.71;101375.41;110896;1209;111455;-64
2023/09/27 03:08:38;;;;;;;62.20;31.90;;;;;;;15.06;87.77;101371.70;110831;1210;139535;-64
2023/09/27 03:11:03;;;;;;;62.80;31.60;;;;;;;15.05;87.89;101368.88;110920;1215;97704;-64
2023/09/27 03:13:29;;;;;;;63.30;33.50;;;;;;;15.04;87.90;101371.61;110777;1209;97597;-64
2023/09/27 03:15:56;;;;;;;69.40;32.90;;;;;;;15.03;87.97;101370.58;110769;1209;140657;-64
2023/09/27 03:18:21;;;;;;;70.20;33.00;;;;;;;15.02;88.04;101368.85;110831;1215;97616;-64
2023/09/27 03:20:46;;;;;;;62.10;30.10;;;;;;;15.01;88.08;101369.80;110628;1213;139374;-64
2023/09/27 03:23:12;;;;;;;65.60;32.20;;;;;;;14.99;88.16;101368.98;110874;1209;97671;-64
2023/09/27 03:25:38;;;;;;;67.70;33.40;;;;;;;14.98;88.21;101375.00;110885;1209;97687;-66
2023/09/27 03:28:04;;;;;;;64.30;31.20;;;;;;;14.97;88.29;101378.30;110898;1209;138969;-65
2023/09/27 03:30:29;;;;;;;67.70;33.00;;;;;;;14.95;88.26;101380.55;110928;1215;99082;-65
2023/09/27 03:32:55;;;;;;;66.20;32.70;;;;;;;14.93;88.40;101381.86;110864;1213;139059;-65
2023/09/27 03:35:21;;;;;;;68.30;32.30;;;;;;;14.93;88.37;101379.89;110996;1213;97678;-65
2023/09/27 03:37:47;;;;;;;63.00;31.40;;;;;;;14.92;88.52;101379.39;110923;1210;97742;-65
2023/09/27 03:40:15;;;;;;;68.20;31.80;;;;;;;14.91;88.53;101377.48;110834;1209;139465;-65
2023/09/27 03:42:45;;;;;;;67.30;32.40;;;;;;;14.90;88.58;101379.14;110901;1214;97717;-65
2023/09/27 03:45:11;;;;;;;61.30;31.70;;;;;;;14.90;88.62;101380.61;110962;1214;139452;-65
2023/09/27 03:47:36;;;;;;;70.00;32.00;;;;;;;14.89;88.64;101380.66;110989;1209;97666;-65
2023/09/27 03:50:02;;;;;;;72.00;33.50;;;;;;;14.88;88.63;101381.23;110942;1214;97630;-65
2023/09/27 03:52:27;;;;;;;68.90;32.80;;;;;;;14.88;88.71;101379.64;110775;1209;139460;-65
2023/09/27 03:54:52;;;;;;;70.60;34.40;;;;;;;14.86;88.88;101378.64;110737;1215;97692;-65
2023/09/27 03:57:18;;;;;;;68.10;31.70;;;;;;;14.85;88.79;101374.73;110890;1209;139351;-65
2023/09/27 03:59:43;;;;;;;65.60;33.50;;;;;;;14.85;88.92;101379.96;110722;1215;97777;-65
2023/09/27 04:02:08;;;;;;;77.10;32.90;;;;;;;14.84;88.87;101376.42;111004;1214;97587;-65
2023/09/27 04:04:33;;;;;;;66.00;33.40;;;;;;;14.82;89.04;101380.07;110789;1211;139723;-65
2023/09/27 04:06:59;;;;;;;75.80;34.20;;;;;;;14.82;89.05;101380.65;110978;1209;97581;-65
2023/09/27 04:09:24;;;;;;;66.30;32.10;;;;;;;14.81;89.13;101385.00;110823;1214;139056;-65
2023/09/27 04:11:49;;;;;;;70.50;33.50;;;;;;;14.80;89.22;101387.38;110877;1210;97601;-66
2023/09/27 04:14:14;;;;;;;65.40;32.90;;;;;;;14.80;89.36;101392.80;110964;1213;98033;-66
2023/09/27 04:16:39;;;;;;;61.70;31.90;;;;;;;14.79;89.34;101394.08;110710;1210;139398;-64
2023/09/27 04:19:05;;;;;;;69.40;33.30;;;;;;;14.79;89.46;101395.73;110974;1215;98110;-64
2023/09/27 04:21:30;;;;;;;66.20;33.10;;;;;;;14.78;89.45;101397.58;110792;1215;139481;-66
2023/09/27 04:23:57;;;;;;;72.50;35.00;;;;;;;14.77;89.52;101399.80;110910;1209;97561;-64
2023/09/27 04:26:23;;;;;;;64.10;32.80;;;;;;;14.76;89.51;101397.52;110840;1209;139159;-64
2023/09/27 04:28:50;;;;;;;67.70;32.20;;;;;;;14.74;89.63;101404.77;110976;1215;98300;-64
2023/09/27 04:31:17;;;;;;;76.10;34.50;;;;;;;14.74;89.69;101405.52;111193;1215;96224;-64
2023/09/27 04:33:44;;;;;;;68.00;33.80;;;;;;;14.73;89.84;101402.30;110872;1209;139460;-64
2023/09/27 04:36:16;;;;;;;63.90;31.30;;;;;;;14.72;89.82;101404.16;111016;1210;97926;-66
2023/09/27 04:38:42;;;;;;;69.10;32.90;;;;;;;14.71;89.88;101403.84;110807;1210;140222;-64
2023/09/27 04:41:08;;;;;;;69.60;34.00;;;;;;;14.71;89.95;101403.32;110925;1214;97734;-64
2023/09/27 04:43:34;;;;;;;61.70;32.20;;;;;;;14.70;89.95;101401.73;110968;1214;97694;-65
2023/09/27 04:45:59;;;;;;;70.70;33.80;;;;;;;14.69;89.95;101401.99;110858;1209;141064;-64
2023/09/27 04:48:25;;;;;;;65.30;33.70;;;;;;;14.67;90.01;101403.14;110898;1215;97787;-64
2023/09/27 04:50:50;;;;;;;74.50;34.90;;;;;;;14.67;90.04;101408.55;110816;1209;140058;-64
2023/09/27 04:53:16;;;;;;;68.80;34.50;;;;;;;14.67;90.15;101408.75;110888;1210;97611;-64
2023/09/27 04:55:41;;;;;;;75.60;34.30;;;;;;;14.67;90.20;101407.84;110943;1214;97684;-64
2023/09/27 04:58:06;;;;;;;66.80;32.70;;;;;;;14.67;90.26;101411.80;110844;1210;140339;-64
2023/09/27 05:00:32;;;;;;;74.90;33.50;;;;;;;14.66;90.33;101415.61;110851;1214;99030;-64
2023/09/27 05:02:57;;;;;;;71.30;32.60;;;;;;;14.66;90.40;101417.58;110879;1214;140140;-64
2023/09/27 05:05:22;;;;;;;67.20;33.70;;;;;;;14.66;90.36;101416.86;110762;1209;99804;-63
2023/09/27 05:07:48;;;;;;;68.90;33.80;;;;;;;14.67;90.45;101415.40;110940;1215;99077;-63
2023/09/27 05:10:14;;;;;;;69.20;32.40;;;;;;;14.67;90.41;101416.09;110824;1209;140053;-63
2023/09/27 05:12:39;;;;;;;71.00;34.70;;;;;;;14.68;90.57;101416.05;110962;1215;97710;-63
2023/09/27 05:15:06;;;;;;;77.20;34.30;;;;;;;14.69;90.51;101419.96;110782;1215;140133;-65
2023/09/27 05:17:31;;;;;;;70.90;33.50;;;;;;;14.70;90.63;101419.55;111071;1214;97659;-63
2023/09/27 05:19:57;;;;;;;64.10;32.80;;;;;;;14.71;90.71;101418.77;110927;1209;97694;-64
2023/09/27 05:22:23;;;;;;;66.50;33.50;;;;;;;14.73;90.82;101421.77;110915;1209;138926;-64
2023/09/27 05:24:49;;;;;;;69.50;34.00;;;;;;;14.73;90.84;101419.57;111065;1215;97768;-65
2023/09/27 05:27:15;;;;;;;66.90;34.30;;;;;;;14.75;90.92;101424.90;110882;1215;139041;-65
2023/09/27 05:29:41;;;;;;;80.00;34.30;;;;;;;14.75;90.85;101422.71;110959;1209;97692;-64
2023/09/27 05:32:07;;;;;;;70.30;33.10;;;;;;;14.76;90.98;101422.30;110900;1210;97627;-65
2023/09/27 05:34:33;;;;;;;65.20;32.70;;;;;;;14.78;91.04;101422.77;110934;1209;140371;-62
2023/09/27 05:36:59;;;;;;;66.50;33.20;;;;;;;14.80;91.08;101424.48;110907;1210;97672;-63
2023/09/27 05:39:24;;;;;;;65.10;33.20;;;;;;;14.81;91.16;101428.53;110785;1209;139033;-64
2023/09/27 05:41:49;;;;;;;73.30;34.80;;;;;;;14.82;91.23;101428.30;110974;1215;97930;-64
2023/09/27 05:44:14;;;;;;;69.70;33.80;;;;;;;14.85;91.28;101427.30;110974;1209;97592;-64
2023/09/27 05:46:40;;;;;;;76.60;33.20;;;;;;;14.86;91.33;101424.52;110878;1215;138686;-63
2023/09/27 05:49:09;;;;;;;64.90;35.40;;;;;;;14.88;91.31;101428.39;111019;1210;97649;-64
2023/09/27 05:51:35;;;;;;;67.70;33.60;;;;;;;14.89;91.40;101426.88;110906;1209;139545;-63
2023/09/27 05:54:01;;;;;;;68.00;34.60;;;;;;;14.91;91.46;101427.16;111088;1209;98825;-63
2023/09/27 05:56:28;;;;;;;70.50;34.80;;;;;;;14.92;91.52;101428.17;110915;1209;140366;-63
2023/09/27 05:58:54;;;;;;;70.70;34.80;;;;;;;14.95;91.67;101425.72;110952;1213;97771;-63
2023/09/27 06:01:19;;;;;;;73.00;35.20;;;;;;;14.97;91.60;101424.01;110963;1209;97716;-63
2023/09/27 06:03:46;;;;;;;66.30;34.10;;;;;;;15.00;91.75;101429.58;110904;1209;139008;-63
2023/09/27 06:06:12;;;;;;;70.30;32.80;;;;;;;15.04;91.75;101429.95;111006;1209;97588;-63
2023/09/27 06:08:38;;;;;;;68.40;33.20;;;;;;;15.07;91.77;101434.80;110925;1209;139764;-63
2023/09/27 06:11:04;;;;;;;68.80;34.20;;;;;;;15.12;91.87;101437.45;110996;1209;96197;-63
2023/09/27 06:13:29;;;;;;;64.60;33.60;;;;;;;15.17;91.87;101442.09;110998;1215;97771;-64
2023/09/27 06:15:54;;;;;;;61.20;33.20;;;;;;;15.20;92.00;101448.94;110829;1209;139560;-63
2023/09/27 06:18:20;;;;;;;68.40;32.80;;;;;;;15.25;92.00;101452.30;111092;1209;97588;-64
2023/09/27 06:20:47;;;;;;;70.50;35.60;;;;;;;15.28;92.06;101448.21;110805;1210;140934;-64
2023/09/27 06:23:12;;;;;;;72.00;34.00;;;;;;;15.30;92.02;101450.95;110793;1210;99482;-63
2023/09/27 06:25:39;;;;;;;82.40;35.30;;;;;;;15.34;92.25;101449.69;110984;1215;97674;-64
2023/09/27 06:28:05;;;;;;;75.60;34.00;;;;;;;15.38;92.30;101453.98;110832;1209;139506;-65
2023/09/27 06:30:30;;;;;;;70.80;34.00;;;;;;;15.42;92.35;101463.66;111013;1213;97573;-64
2023/09/27 06:32:56;;;;;;;70.70;34.70;;;;;;;15.46;92.27;101465.80;110964;1214;141258;-63
2023/09/27 06:35:23;;;;;;;67.30;34.40;;;;;;;15.50;92.33;101469.57;110999;1210;99353;-64
2023/09/27 06:37:51;;;;;;;68.10;34.20;;;;;;;15.55;92.35;101469.50;110998;1209;97691;-64
2023/09/27 06:40:19;;;;;;;70.90;34.70;;;;;;;15.60;92.40;101476.30;110892;1214;139602;-64
2023/09/27 06:42:45;;;;;;;66.90;36.50;;;;;;;15.64;92.48;101478.98;110999;1210;108137;-63
2023/09/27 06:45:12;;;;;;;68.20;34.80;;;;;;;15.67;92.52;101481.50;110833;1209;141320;-64
2023/09/27 06:47:40;;;;;;;74.80;35.00;;;;;;;15.71;92.50;101481.85;111002;1213;97750;-64
2023/09/27 06:50:08;;;;;;;65.30;33.80;;;;;;;15.75;92.73;101484.53;111051;1209;98544;-64
2023/09/27 06:52:34;;;;;;;68.90;35.20;;;;;;;15.80;92.85;101488.20;110870;1215;138855;-64
2023/09/27 06:55:00;;;;;;;69.80;36.10;;;;;;;15.85;92.65;101486.89;111039;1214;97721;-63
2023/09/27 06:57:26;;;;;;;67.50;35.60;;;;;;;15.91;92.83;101491.09;110853;1209;141758;-64
2023/09/27 06:59:51;;;;;;;64.00;36.60;;;;;;;15.98;92.88;101492.52;110943;1209;111979;-64
2023/09/27 07:02:16;;;;;;;67.20;33.60;;;;;;;16.05;92.94;101493.05;110832;1209;139693;-63
2023/09/27 07:04:42;;;;;;;71.70;35.40;;;;;;;16.11;92.89;101490.02;110917;1215;97765;-64
2023/09/27 07:07:09;;;;;;;72.90;36.00;;;;;;;16.17;93.05;101494.73;111034;1214;97720;-64
2023/09/27 07:09:34;;;;;;;68.50;34.00;;;;;;;16.22;93.06;101495.36;110929;1210;139498;-64
2023/09/27 07:12:00;;;;;;;75.00;37.50;;;;;;;16.29;93.30;101499.70;111020;1213;97682;-64
2023/09/27 07:14:26;;;;;;;70.40;35.00;;;;;;;16.35;93.30;101502.07;110893;1209;140267;-64
2023/09/27 07:16:51;;;;;;;72.20;35.30;;;;;;;16.41;93.26;101502.82;110616;1209;97587;-64
2023/09/27 07:19:17;;;;;;;68.60;36.30;;;;;;;16.47;93.30;101498.17;110957;1209;99114;-64
2023/09/27 07:21:44;;;;;;;59.50;32.60;;;;;;;16.53;93.34;101494.96;110726;1215;138977;-64
2023/09/27 07:24:10;;;;;;;72.80;35.00;;;;;;;16.59;93.43;101495.73;110768;1213;98958;-64
2023/09/27 07:26:37;;;;;;;70.80;35.70;;;;;;;16.64;93.40;101493.26;110828;1214;140434;-63
2023/09/27 07:29:02;;;;;;;72.90;35.80;;;;;;;16.72;93.33;101499.33;110837;1209;97645;-63
2023/09/27 07:31:29;;;;;;;63.00;33.60;;;;;;;16.79;93.40;101497.35;110950;1209;99718;-63
2023/09/27 07:33:56;;;;;;;72.70;34.60;;;;;;;16.86;93.43;101502.73;110658;1213;140640;-63
2023/09/27 07:36:24;;;;;;;73.80;35.70;;;;;;;16.92;93.47;101504.02;111083;1209;97657;-64
2023/09/27 07:38:55;;;;;;;71.20;36.20;;;;;;;16.98;93.61;101505.83;110757;1214;139002;-63
2023/09/27 07:41:20;;;;;;;69.30;35.40;;;;;;;17.04;93.42;101511.09;110965;1214;99008;-64
2023/09/27 07:43:47;;;;;;;63.50;34.80;;;;;;;17.10;93.42;101511.83;110782;1209;97610;-63
2023/09/27 07:46:14;;;;;;;65.40;33.70;;;;;;;17.16;93.42;101509.70;110789;1215;139679;-63
2023/09/27 07:48:41;;;;;;;64.80;33.20;;;;;;;17.22;93.56;101509.33;110976;1214;97810;-64
2023/09/27 07:51:14;;;;;;;68.30;33.40;;;;;;;17.31;93.44;101512.25;110753;1214;140301;-63
2023/09/27 07:53:39;;;;;;;62.10;34.50;;;;;;;17.39;93.57;101511.45;110967;1209;99547;-63
2023/09/27 07:56:10;;;;;;;53.10;30.10;;;;;;;17.48;93.69;101515.23;111004;1214;97609;-64
2023/09/27 07:58:41;;;;;;;61.90;32.00;;;;;;;17.60;93.85;101515.23;110900;1214;138838;-64
2023/09/27 08:01:07;;;;;;;49.90;28.60;;;;;;;17.73;93.79;101515.06;110948;1215;104136;-62
2023/09/27 08:03:32;;;;;;;52.70;28.40;;;;;;;17.86;93.89;101514.65;110769;1209;139234;-62
2023/09/27 08:05:58;;;;;;;50.20;27.20;;;;;;;17.98;93.80;101521.17;110932;1212;97692;-62
2023/09/27 08:08:23;;;;;;;44.30;26.20;;;;;;;18.08;93.75;101521.44;110872;1214;139888;-62
2023/09/27 08:10:49;;;;;;;49.40;26.70;;;;;;;18.19;93.68;101521.86;111014;1213;97615;-62
2023/09/27 08:13:17;;;;;;;50.30;28.30;;;;;;;18.27;93.53;101523.69;110867;1209;100178;-62
2023/09/27 08:15:47;;;;;;;46.30;25.80;;;;;;;18.35;93.44;101519.54;110730;1214;139588;-62
2023/09/27 08:18:13;;;;;;;45.50;25.60;;;;;;;18.48;93.52;101519.67;110990;1209;97662;-62
2023/09/27 08:20:38;;;;;;;44.60;23.20;;;;;;;18.61;93.51;101519.06;110880;1209;139169;-62
2023/09/27 08:23:04;;;;;;;41.00;24.40;;;;;;;18.71;93.40;101519.52;110937;1210;96536;-62
2023/09/27 08:25:30;;;;;;;36.60;21.40;;;;;;;18.82;93.39;101514.45;111042;1214;97714;-62
2023/09/27 08:27:56;;;;;;;32.50;22.20;;;;;;;18.98;93.35;101510.55;110771;1209;139024;-62
2023/09/27 08:30:21;;;;;;;37.50;22.10;;;;;;;19.07;93.17;101513.94;110933;1214;97675;-62
2023/09/27 08:32:47;;;;;;;43.90;23.80;;;;;;;19.15;92.91;101515.77;110608;1213;139262;-62
2023/09/27 08:35:12;;;;;;;34.70;21.60;;;;;;;19.22;92.67;101509.50;111071;1209;97671;-62
2023/09/27 08:37:38;;;;;;;32.10;19.80;;;;;;;19.30;92.75;101502.61;111449;1211;98261;-63
2023/09/27 08:40:12;;;;;;;37.20;21.00;;;;;;;19.39;92.59;101500.37;111167;1209;138949;-62
2023/09/27 08:42:39;;;;;;;30.60;17.70;;;;;;;19.54;92.63;101499.25;110970;1209;99460;-63
2023/09/27 08:45:10;;;;;;;31.90;18.20;;;;;;;19.67;92.45;101497.46;110855;1213;139449;-62
2023/09/27 08:47:39;;;;;;;29.40;17.00;;;;;;;19.78;92.28;101497.08;110936;1214;97584;-62
2023/09/27 08:50:05;;;;;;;31.10;17.90;;;;;;;19.89;92.11;101498.45;110821;1214;102798;-62
2023/09/27 08:52:31;;;;;;;23.80;15.20;;;;;;;20.00;92.02;101498.05;110607;1209;140927;-64
2023/09/27 08:54:56;;;;;;;29.20;15.70;;;;;;;20.11;91.86;101493.65;110925;1214;97635;-63
2023/09/27 08:57:26;;;;;;;28.30;16.10;;;;;;;20.23;91.63;101493.02;110849;1210;140316;-63
2023/09/27 08:59:51;;;;;;;24.20;15.10;;;;;;;20.32;91.31;101487.64;111085;1209;103010;-62
2023/09/27 09:02:20;;;;;;;19.60;13.90;;;;;;;20.40;91.17;101480.59;111015;1211;141160;-62
2023/09/27 09:04:46;;;;;;;24.80;14.10;;;;;;;20.50;90.83;101475.54;110966;1209;97704;-63
2023/09/27 09:07:11;;;;;;;25.80;14.80;;;;;;;20.59;90.63;101482.54;111084;1209;97657;-63
2023/09/27 09:09:39;;;;;;;20.30;13.30;;;;;;;20.69;90.50;101482.30;111078;1213;140482;-63
2023/09/27 09:12:08;;;;;;;29.50;14.40;;;;;;;20.77;89.85;101485.52;110959;1209;97768;-63
2023/09/27 09:14:43;;;;;;;19.00;11.80;;;;;;;20.86;89.74;101483.00;110973;1210;139679;-63
2023/09/27 09:17:10;;;;;;;20.90;12.50;;;;;;;20.96;89.61;101483.94;111083;1214;97625;-64
2023/09/27 09:19:38;;;;;;;21.90;11.50;;;;;;;21.08;89.35;101482.48;110880;1210;97689;-63
2023/09/27 09:22:08;;;;;;;28.10;12.80;;;;;;;21.22;89.02;101484.21;110778;1209;139260;-63
2023/09/27 09:24:45;;;;;;;23.60;12.60;;;;;;;21.33;88.75;101480.98;110938;1214;97600;-64
2023/09/27 09:27:12;;;;;;;18.30;12.40;;;;;;;21.44;88.36;101481.23;110762;1210;138935;-62
2023/09/27 09:29:46;;;;;;;21.30;12.10;;;;;;;21.55;88.03;101488.63;110857;1214;96877;-63
2023/09/27 09:32:23;;;;;;;23.00;12.10;;;;;;;21.63;87.68;101489.46;110924;1209;97663;-62
2023/09/27 09:34:50;;;;;;;26.00;11.30;;;;;;;21.73;87.38;101486.15;110901;1209;103244;-62
2023/09/27 09:37:20;;;;;;;20.00;11.40;;;;;;;21.81;87.14;101482.98;110887;1209;97602;-62
2023/09/27 09:39:47;;;;;;;25.10;12.60;;;;;;;21.91;86.95;101477.31;110856;1213;140868;-63
2023/09/27 09:42:14;;;;;;;18.30;9.80;;;;;;;22.01;86.74;101479.94;110963;1209;97687;-62
2023/09/27 09:44:40;;;;;;;22.20;11.60;;;;;;;22.12;86.39;101477.48;110874;1209;139046;-62
2023/09/27 09:47:10;;;;;;;23.60;10.90;;;;;;;22.21;85.91;101477.11;110823;1213;97791;-62
2023/09/27 09:49:36;;;;;;;22.30;9.60;;;;;;;22.31;85.95;101479.02;111028;1209;97581;-63
2023/09/27 09:52:03;;;;;;;21.50;10.60;;;;;;;22.41;85.47;101478.48;110763;1209;139953;-62
2023/09/27 09:54:37;;;;;;;13.60;9.40;;;;;;;22.49;85.18;101480.76;110923;1209;97622;-63
2023/09/27 09:57:07;;;;;;;18.70;9.60;;;;;;;22.58;84.39;101475.77;110683;1214;139282;-63
2023/09/27 09:59:37;;;;;;;16.20;9.50;;;;;;;22.65;84.07;101467.56;110882;1214;103221;-63
2023/09/27 10:02:17;;;;;;;17.40;10.20;;;;;;;22.74;84.07;101469.04;110828;1214;97610;-63
2023/09/27 10:04:45;;;;;;;13.50;9.10;;;;;;;22.88;83.72;101471.54;110713;1213;139320;-63
2023/09/27 10:07:13;;;;;;;19.80;9.70;;;;;;;22.99;83.32;101474.11;110875;1214;97692;-64
2023/09/27 10:09:39;;;;;;;21.20;9.70;;;;;;;23.07;82.88;101467.99;110822;1214;140390;-63
2023/09/27 10:12:09;;;;;;;21.00;8.90;;;;;;;23.15;82.21;101463.86;110994;1212;99306;-64
2023/09/27 10:14:35;;;;;;;17.10;9.10;;;;;;;23.26;82.00;101458.18;110709;1209;139489;-66
2023/09/27 10:17:00;;;;;;;15.20;9.00;;;;;;;23.38;81.74;101459.75;110679;1210;97755;-64
2023/09/27 10:19:28;;;;;;;17.50;9.10;;;;;;;23.46;81.24;101458.46;110867;1210;97630;-62
2023/09/27 10:22:04;;;;;;;22.00;9.00;;;;;;;23.52;80.81;101453.02;110774;1209;139484;-63
2023/09/27 10:24:33;;;;;;;13.90;8.00;;;;;;;23.62;80.54;101455.98;111020;1211;99012;-63
2023/09/27 10:26:59;;;;;;;17.60;8.50;;;;;;;23.76;80.06;101456.70;110670;1210;139240;-63
2023/09/27 10:29:24;;;;;;;16.80;8.30;;;;;;;23.88;79.39;101458.73;110679;1209;97775;-63
2023/09/27 10:32:02;;;;;;;30.20;8.70;;;;;;;23.97;78.95;101453.73;110823;1212;97645;-63
2023/09/27 10:34:27;;;;;;;20.20;7.40;;;;;;;24.07;78.29;101453.56;110742;1213;138804;-63
2023/09/27 10:36:54;;;;;;;14.40;8.40;;;;;;;24.17;77.91;101450.46;110720;1214;97594;-63
2023/09/27 10:39:22;;;;;;;17.30;7.50;;;;;;;24.25;77.44;101444.14;110778;1214;139477;-64
2023/09/27 10:41:49;;;;;;;18.60;7.40;;;;;;;24.34;76.89;101441.56;110644;1214;103116;-64
2023/09/27 10:44:29;;;;;;;10.70;7.00;;;;;;;24.44;76.40;101440.81;110949;1209;97689;-62
2023/09/27 10:46:55;;;;;;;18.60;7.40;;;;;;;24.53;76.08;101438.20;110757;1210;99243;-62
2023/09/27 10:49:22;;;;;;;11.10;6.90;;;;;;;24.60;75.40;101433.35;110770;1212;97693;-63
2023/09/27 10:51:48;;;;;;;16.00;6.60;;;;;;;24.67;74.87;101425.65;110685;1211;141043;-62
2023/09/27 10:54:14;;;;;;;19.30;7.10;;;;;;;24.77;74.66;101426.86;110845;1209;97748;-63
2023/09/27 10:56:44;;;;;;;13.90;7.10;;;;;;;24.87;74.38;101421.36;110537;1210;139677;-62